Time;durP1;ratioP1;P1;durP2;ratioP2;P2;SDS_P1;SDS_P2;PMS_P1;PMS_P2;Temp;Humidity;BMP_temperature;BMP_pressure;BME280_temperature;BME280_humidity;BME280_pressure;Samples;Min_cycle;Max_cycle;Signal;HPM_P1;HPM_P2
2023/10/14 00:02:24;;;;;;;4.90;2.58;;;;;;;;;;6181331;28;20049;-71
2023/10/14 00:05:24;;;;;;;4.30;2.42;;;;;;;;;;6207185;28;20034;-71
2023/10/14 00:08:27;;;;;;;3.30;2.33;;;;;;;;;;6211855;28;20379;-72
2023/10/14 00:11:35;;;;;;;7.20;2.35;;;;;;;;;;6178200;28;20052;-73
2023/10/14 00:14:36;;;;;;;3.15;2.28;;;;;;;;;;6261600;28;20052;-73
2023/10/14 00:17:41;;;;;;;4.57;2.55;;;;;;;;;;6248568;28;20050;-73
2023/10/14 00:20:42;;;;;;;4.28;2.63;;;;;;;;;;6215301;28;20541;-73
2023/10/14 00:23:42;;;;;;;4.47;2.78;;;;;;;;;;6207308;28;20068;-73
2023/10/14 00:26:47;;;;;;;4.05;2.80;;;;;;;;;;6196768;28;20045;-73
2023/10/14 00:29:48;;;;;;;2.97;2.38;;;;;;;;;;6199604;28;20040;-73
2023/10/14 00:32:49;;;;;;;3.45;2.40;;;;;;;;;;6219929;28;20018;-73
2023/10/14 00:35:54;;;;;;;3.80;2.65;;;;;;;;;;6208425;28;20560;-74
2023/10/14 00:38:57;;;;;;;5.70;2.67;;;;;;;;;;6207892;28;20375;-73
2023/10/14 00:41:58;;;;;;;3.22;2.65;;;;;;;;;;6179718;28;20018;-73
2023/10/14 00:44:58;;;;;;;3.42;2.33;;;;;;;;;;6197447;28;20053;-72
2023/10/14 00:48:02;;;;;;;3.60;2.30;;;;;;;;;;6210689;28;20041;-73
2023/10/14 00:51:02;;;;;;;3.85;2.70;;;;;;;;;;6216364;28;20098;-72
2023/10/14 00:54:03;;;;;;;5.70;2.80;;;;;;;;;;6210666;28;20030;-73
2023/10/14 00:57:14;;;;;;;;;;;;;;;;;;6191134;28;20369;-73
2023/10/14 01:00:22;;;;;;;4.82;2.22;;;;;;;;;;6182625;28;19910;-73
2023/10/14 01:03:26;;;;;;;3.83;2.17;;;;;;;;;;6180081;28;20041;-73
2023/10/14 01:06:53;;;;;;;3.22;2.42;;;;;;;;;;6211135;28;20034;-73
2023/10/14 01:10:24;;;;;;;4.40;2.28;;;;;;;;;;6210157;28;20029;-73
2023/10/14 01:13:24;;;;;;;5.05;2.38;;;;;;;;;;6215013;28;20018;-74
2023/10/14 01:20:26;;;;;;;3.00;2.25;;;;;;;;;;6203715;28;20026;-73
2023/10/14 01:23:24;;;;;;;3.95;2.38;;;;;;;;;;6192483;28;20395;-73
2023/10/14 01:26:26;;;;;;;3.42;2.28;;;;;;;;;;6195418;28;20034;-73
2023/10/14 01:29:31;;;;;;;4.82;2.03;;;;;;;;;;6215845;28;20455;-73
2023/10/14 01:32:49;;;;;;;3.08;2.15;;;;;;;;;;6217141;28;21528;-73
2023/10/14 01:35:51;;;;;;;2.30;1.95;;;;;;;;;;6184461;28;20103;-73
2023/10/14 01:38:57;;;;;;;3.75;2.33;;;;;;;;;;6210870;28;20137;-73
2023/10/14 01:41:58;;;;;;;3.33;2.13;;;;;;;;;;6216918;28;20026;-73
2023/10/14 01:44:59;;;;;;;3.13;2.30;;;;;;;;;;6216670;28;20030;-73
2023/10/14 01:48:12;;;;;;;2.95;2.15;;;;;;;;;;6214297;28;20026;-73
2023/10/14 01:51:12;;;;;;;3.10;2.17;;;;;;;;;;6204441;28;20027;-73
2023/10/14 01:54:12;;;;;;;7.43;2.33;;;;;;;;;;6188192;28;20027;-73
2023/10/14 01:57:15;;;;;;;3.13;2.00;;;;;;;;;;6214838;28;20033;-72
2023/10/14 02:00:25;;;;;;;4.07;2.20;;;;;;;;;;6209734;28;20543;-73
2023/10/14 02:03:33;;;;;;;3.58;2.38;;;;;;;;;;6191192;28;20018;-73
2023/10/14 02:06:33;;;;;;;2.65;1.95;;;;;;;;;;6197153;28;20030;-73
2023/10/14 02:09:33;;;;;;;3.43;2.00;;;;;;;;;;6197194;28;20478;-73
2023/10/14 02:12:35;;;;;;;3.23;2.17;;;;;;;;;;6197372;28;20395;-73
2023/10/14 02:15:37;;;;;;;3.95;2.03;;;;;;;;;;6196670;28;20037;-73
2023/10/14 02:18:37;;;;;;;4.18;2.50;;;;;;;;;;6190553;28;20022;-73
2023/10/14 02:21:42;;;;;;;3.83;2.27;;;;;;;;;;6221025;28;20025;-73
2023/10/14 02:24:42;;;;;;;2.83;1.83;;;;;;;;;;6214039;28;20022;-73
2023/10/14 02:27:43;;;;;;;3.70;2.00;;;;;;;;;;6207948;28;20541;-73
2023/10/14 02:30:51;;;;;;;4.93;2.28;;;;;;;;;;6199378;28;20458;-73
2023/10/14 02:33:51;;;;;;;3.28;2.30;;;;;;;;;;6220522;28;20080;-73
2023/10/14 02:36:51;;;;;;;2.70;1.93;;;;;;;;;;6192483;28;20225;-72
2023/10/14 02:39:51;;;;;;;4.13;2.17;;;;;;;;;;6217660;28;20107;-73
2023/10/14 02:42:57;;;;;;;5.30;2.20;;;;;;;;;;6205280;28;20099;-73
2023/10/14 02:46:00;;;;;;;2.70;2.33;;;;;;;;;;6198892;28;20119;-73
2023/10/14 02:49:06;;;;;;;2.53;2.08;;;;;;;;;;6199381;28;20080;-72
2023/10/14 02:52:11;;;;;;;3.28;2.30;;;;;;;;;;6192378;28;20129;-72
2023/10/14 02:55:25;;;;;;;4.47;2.28;;;;;;;;;;6199477;28;20025;-73
2023/10/14 02:58:26;;;;;;;3.38;1.92;;;;;;;;;;6213541;28;20134;-73
2023/10/14 03:01:31;;;;;;;2.65;2.05;;;;;;;;;;6176389;28;20121;-73
2023/10/14 03:04:39;;;;;;;2.70;2.30;;;;;;;;;;6219281;28;20029;-73
2023/10/14 03:07:50;;;;;;;2.92;1.98;;;;;;;;;;6205614;28;20030;-73
2023/10/14 03:10:59;;;;;;;4.70;2.60;;;;;;;;;;6181362;28;20029;-73
2023/10/14 03:13:59;;;;;;;5.00;2.65;;;;;;;;;;6194987;28;20025;-73
2023/10/14 03:16:59;;;;;;;3.90;2.43;;;;;;;;;;6201136;28;20018;-73
2023/10/14 03:20:09;;;;;;;3.87;2.50;;;;;;;;;;6194828;28;20033;-74
2023/10/14 03:23:22;;;;;;;3.42;2.42;;;;;;;;;;6177664;28;20098;-73
2023/10/14 03:26:32;;;;;;;2.67;1.88;;;;;;;;;;6189899;28;20497;-74
2023/10/14 03:29:32;;;;;;;3.85;2.45;;;;;;;;;;6180257;28;20105;-74
2023/10/14 03:32:32;;;;;;;2.67;2.23;;;;;;;;;;6220022;28;20037;-74
2023/10/14 03:35:32;;;;;;;3.70;2.20;;;;;;;;;;6177360;28;20025;-74
2023/10/14 03:41:42;;;;;;;2.40;1.98;;;;;;;;;;6254880;28;20031;-74
2023/10/14 03:44:42;;;;;;;2.65;2.05;;;;;;;;;;6305761;28;20043;-74
2023/10/14 03:47:42;;;;;;;4.57;2.27;;;;;;;;;;6196886;28;20080;-74
2023/10/14 03:50:44;;;;;;;2.33;2.13;;;;;;;;;;6189825;28;20113;-74
2023/10/14 03:53:45;;;;;;;4.15;2.20;;;;;;;;;;6199860;28;20027;-73
2023/10/14 03:56:45;;;;;;;2.63;1.90;;;;;;;;;;6202570;28;20064;-74
2023/10/14 03:59:48;;;;;;;2.97;2.22;;;;;;;;;;6218350;28;20045;-74
2023/10/14 04:02:49;;;;;;;2.88;2.05;;;;;;;;;;6217771;28;20459;-74
2023/10/14 04:05:52;;;;;;;3.63;1.90;;;;;;;;;;6217134;28;20054;-74
2023/10/14 04:08:54;;;;;;;3.55;2.22;;;;;;;;;;6187485;28;20037;-74
2023/10/14 04:11:57;;;;;;;5.78;2.42;;;;;;;;;;6177679;28;20022;-74
2023/10/14 04:15:05;;;;;;;3.92;2.05;;;;;;;;;;6194723;28;20030;-74
2023/10/14 04:18:12;;;;;;;3.65;2.30;;;;;;;;;;6206335;28;20027;-74
2023/10/14 04:21:19;;;;;;;3.13;2.38;;;;;;;;;;6203592;28;20476;-74
2023/10/14 04:24:28;;;;;;;5.93;2.13;;;;;;;;;;6187156;28;20080;-74
2023/10/14 04:33:44;;;;;;;3.45;2.28;;;;;;;;;;6244405;28;20314;-74
2023/10/14 04:36:56;;;;;;;2.78;2.15;;;;;;;;;;6186821;28;20034;-74
2023/10/14 04:39:59;;;;;;;3.38;2.30;;;;;;;;;;6215695;28;20057;-74
2023/10/14 04:43:49;;;;;;;3.45;2.17;;;;;;;;;;6181690;28;20076;-74
2023/10/14 04:46:54;;;;;;;5.10;2.28;;;;;;;;;;6177202;28;20068;-74
2023/10/14 04:49:56;;;;;;;3.10;2.25;;;;;;;;;;6186550;28;20027;-74
2023/10/14 04:52:57;;;;;;;2.80;2.33;;;;;;;;;;6168631;28;20027;-74
2023/10/14 04:56:01;;;;;;;2.65;1.88;;;;;;;;;;6169762;28;20030;-74
2023/10/14 04:59:05;;;;;;;3.38;1.98;;;;;;;;;;6203621;28;20040;-82
2023/10/14 05:02:05;;;;;;;3.67;2.22;;;;;;;;;;6200052;28;20029;-82
2023/10/14 05:05:08;;;;;;;2.77;2.27;;;;;;;;;;6196631;28;20047;-82
2023/10/14 05:08:15;;;;;;;2.88;2.00;;;;;;;;;;6187613;28;20022;-81
2023/10/14 05:11:18;;;;;;;2.90;2.28;;;;;;;;;;6182657;28;20023;-81
2023/10/14 05:14:25;;;;;;;2.78;1.98;;;;;;;;;;6177881;28;20029;-82
2023/10/14 05:17:26;;;;;;;5.25;1.95;;;;;;;;;;6194232;28;20025;-85
2023/10/14 05:23:46;;;;;;;3.00;2.05;;;;;;;;;;6202386;28;20019;-85
2023/10/14 05:26:47;;;;;;;3.50;2.40;;;;;;;;;;6214726;28;20037;-86
2023/10/14 05:29:53;;;;;;;3.20;2.03;;;;;;;;;;6250703;28;20024;-85
2023/10/14 05:32:53;;;;;;;3.28;2.35;;;;;;;;;;6189716;28;20030;-85
2023/10/14 05:36:01;;;;;;;3.07;2.10;;;;;;;;;;6183614;28;20050;-85
2023/10/14 05:39:02;;;;;;;3.85;2.20;;;;;;;;;;6181240;28;20052;-85
2023/10/14 05:42:04;;;;;;;;;;;;;;;;;;6180833;28;20022;-84
2023/10/14 05:45:05;;;;;;;1.65;1.33;;;;;;;;;;6195518;28;19914;-86
2023/10/14 05:48:09;;;;;;;2.88;1.90;;;;;;;;;;6173896;28;20035;-86
2023/10/14 05:51:09;;;;;;;3.72;2.45;;;;;;;;;;6184208;28;20394;-85
2023/10/14 05:54:11;;;;;;;3.03;1.97;;;;;;;;;;6174015;28;20019;-85
2023/10/14 05:57:11;;;;;;;;;;;;;;;;;;6180850;28;20029;-86
2023/10/14 06:00:20;;;;;;;1.77;1.37;;;;;;;;;;6195179;28;19910;-85
2023/10/14 06:03:21;;;;;;;2.05;1.77;;;;;;;;;;6203419;28;20027;-85
2023/10/14 06:06:21;;;;;;;2.33;1.97;;;;;;;;;;6174107;28;20038;-85
2023/10/14 06:09:22;;;;;;;3.47;2.10;;;;;;;;;;6174256;28;20031;-85
2023/10/14 06:12:23;;;;;;;4.45;2.13;;;;;;;;;;6189147;28;20117;-86
2023/10/14 06:15:23;;;;;;;4.07;2.33;;;;;;;;;;6179944;28;20177;-87
2023/10/14 06:18:23;;;;;;;2.97;2.30;;;;;;;;;;6198004;28;20022;-86
2023/10/14 06:21:33;;;;;;;3.53;2.23;;;;;;;;;;6212703;28;20072;-86
2023/10/14 06:24:34;;;;;;;5.07;2.65;;;;;;;;;;6192072;28;20066;-82
2023/10/14 06:27:34;;;;;;;4.80;2.70;;;;;;;;;;6215058;28;20055;-81
2023/10/14 06:30:34;;;;;;;3.50;2.33;;;;;;;;;;6201280;28;20117;-82
2023/10/14 06:33:35;;;;;;;6.40;3.00;;;;;;;;;;6181156;28;20032;-82
2023/10/14 06:36:35;;;;;;;5.32;3.15;;;;;;;;;;6198379;28;20250;-82
2023/10/14 06:39:39;;;;;;;6.30;3.37;;;;;;;;;;6206959;28;20445;-82
2023/10/14 06:42:43;;;;;;;8.68;3.80;;;;;;;;;;6198484;28;20018;-81
2023/10/14 06:45:46;;;;;;;6.93;3.80;;;;;;;;;;6180352;28;20399;-82
2023/10/14 06:48:52;;;;;;;9.55;4.30;;;;;;;;;;6181287;28;20038;-82
2023/10/14 06:51:52;;;;;;;6.15;3.88;;;;;;;;;;6196576;28;20113;-81
2023/10/14 06:54:53;;;;;;;8.93;4.47;;;;;;;;;;6198736;28;20475;-81
2023/10/14 06:57:55;;;;;;;6.55;3.95;;;;;;;;;;6193487;28;20027;-82
2023/10/14 07:00:56;;;;;;;6.63;4.47;;;;;;;;;;6209898;28;20069;-81
2023/10/14 07:03:56;;;;;;;6.75;4.28;;;;;;;;;;6207850;28;20064;-82
2023/10/14 07:06:58;;;;;;;7.23;4.07;;;;;;;;;;6196136;28;20023;-83
2023/10/14 07:10:03;;;;;;;9.48;4.55;;;;;;;;;;6188187;28;20081;-84
2023/10/14 07:13:03;;;;;;;7.20;4.28;;;;;;;;;;6221314;28;20402;-83
2023/10/14 07:16:06;;;;;;;5.82;4.22;;;;;;;;;;6196430;28;20108;-86
2023/10/14 07:19:06;;;;;;;8.15;4.57;;;;;;;;;;6185968;28;20050;-86
2023/10/14 07:22:07;;;;;;;8.73;4.43;;;;;;;;;;6177220;28;20038;-87
2023/10/14 07:25:11;;;;;;;5.63;4.00;;;;;;;;;;6175614;28;20035;-86
2023/10/14 07:28:14;;;;;;;6.57;4.53;;;;;;;;;;6197182;28;20030;-84
2023/10/14 07:31:25;;;;;;;6.60;4.35;;;;;;;;;;6174830;28;20058;-84
2023/10/14 07:34:27;;;;;;;7.27;4.67;;;;;;;;;;6219335;28;20021;-86
2023/10/14 07:37:27;;;;;;;6.40;4.70;;;;;;;;;;6188292;28;20110;-84
2023/10/14 07:40:34;;;;;;;6.60;4.40;;;;;;;;;;6192558;28;20470;-83
2023/10/14 07:43:37;;;;;;;7.75;5.05;;;;;;;;;;6178056;28;20026;-84
2023/10/14 07:46:37;;;;;;;6.30;4.82;;;;;;;;;;6197997;28;20053;-83
2023/10/14 07:49:57;;;;;;;6.80;4.40;;;;;;;;;;6182238;28;20022;-83
2023/10/14 07:53:07;;;;;;;6.22;4.30;;;;;;;;;;6171436;28;20053;-81
2023/10/14 07:56:28;;;;;;;6.25;4.82;;;;;;;;;;6189126;28;20079;-82
2023/10/14 07:59:34;;;;;;;6.67;5.00;;;;;;;;;;6202166;28;20045;-82
2023/10/14 08:02:34;;;;;;;5.63;4.85;;;;;;;;;;6163599;28;20014;-86
2023/10/14 08:05:38;;;;;;;6.17;4.83;;;;;;;;;;6182194;28;20029;-88
2023/10/14 08:08:53;;;;;;;5.25;4.57;;;;;;;;;;6200528;28;20622;-77
2023/10/14 08:11:53;;;;;;;6.57;4.93;;;;;;;;;;6180871;28;20041;-87
2023/10/14 08:14:57;;;;;;;5.83;4.87;;;;;;;;;;6183007;28;20361;-87
2023/10/14 08:18:01;;;;;;;7.53;5.18;;;;;;;;;;6174189;28;20023;-88
2023/10/14 08:21:03;;;;;;;9.18;5.15;;;;;;;;;;6179311;28;20090;-87
2023/10/14 08:24:05;;;;;;;7.30;5.35;;;;;;;;;;6268328;28;20052;-88
2023/10/14 08:27:14;;;;;;;7.65;5.75;;;;;;;;;;6199366;28;20406;-88
2023/10/14 08:30:17;;;;;;;9.15;6.45;;;;;;;;;;6193043;28;20034;-88
2023/10/14 08:33:22;;;;;;;10.77;5.95;;;;;;;;;;6187079;28;20117;-88
2023/10/14 08:36:26;;;;;;;8.32;5.45;;;;;;;;;;6194830;28;20056;-89
2023/10/14 08:39:31;;;;;;;6.68;5.38;;;;;;;;;;6180939;28;20045;-89
2023/10/14 08:42:31;;;;;;;8.80;5.82;;;;;;;;;;6175436;28;20102;-90
2023/10/14 08:46:03;;;;;;;;;;;;;;;;;;;;;
2023/10/14 08:49:23;;;;;;;7.10;5.05;;;;;;;;;;6157050;28;20705;-83
2023/10/14 08:53:22;;;;;;;6.85;4.57;;;;;;;;;;6185206;28;20607;-83
2023/10/14 08:56:18;;;;;;;7.28;4.93;;;;;;;;;;6166946;28;20033;-82
2023/10/14 08:59:19;;;;;;;6.43;4.53;;;;;;;;;;6203722;28;20874;-82
2023/10/14 09:02:22;;;;;;;8.03;5.20;;;;;;;;;;6213989;28;20022;-82
2023/10/14 09:05:23;;;;;;;7.78;5.10;;;;;;;;;;6190511;28;20083;-83
2023/10/14 09:08:25;;;;;;;;;;;;;;;;;;6193451;28;20042;-81
2023/10/14 09:11:25;;;;;;;6.13;3.38;;;;;;;;;;6169562;28;20420;-82
2023/10/14 09:14:26;;;;;;;6.90;4.55;;;;;;;;;;6193144;28;20030;-80
2023/10/14 09:17:28;;;;;;;6.10;4.47;;;;;;;;;;6214398;28;20033;-81
2023/10/14 09:20:32;;;;;;;6.88;4.65;;;;;;;;;;6177555;28;20031;-81
2023/10/14 09:23:33;;;;;;;6.00;4.32;;;;;;;;;;6187680;28;20030;-82
2023/10/14 09:26:43;;;;;;;5.65;4.13;;;;;;;;;;6158383;28;20623;-82
2023/10/14 09:29:43;;;;;;;6.00;4.55;;;;;;;;;;6228209;28;20039;-82
2023/10/14 09:32:44;;;;;;;;;;;;;;;;;;6184487;28;20091;-82
2023/10/14 09:35:45;;;;;;;4.95;3.80;;;;;;;;;;6181592;28;19914;-81
2023/10/14 09:38:49;;;;;;;6.40;3.67;;;;;;;;;;6174729;28;20049;-79
2023/10/14 09:41:50;;;;;;;6.07;3.95;;;;;;;;;;6168497;28;20763;-82
2023/10/14 09:44:51;;;;;;;6.63;4.57;;;;;;;;;;6187645;28;20038;-82
2023/10/14 09:47:52;;;;;;;7.63;4.22;;;;;;;;;;6220704;28;20486;-82
2023/10/14 09:50:54;;;;;;;6.47;4.00;;;;;;;;;;6194798;28;20026;-81
2023/10/14 09:53:55;;;;;;;5.80;4.07;;;;;;;;;;6179317;28;20343;-81
2023/10/14 09:56:55;;;;;;;4.43;3.13;;;;;;;;;;6208015;28;20026;-89
2023/10/14 09:59:56;;;;;;;3.03;2.40;;;;;;;;;;6186296;28;20023;-89
2023/10/14 10:02:56;;;;;;;3.55;2.30;;;;;;;;;;6195113;28;20093;-89
2023/10/14 10:06:06;;;;;;;3.72;2.28;;;;;;;;;;6154909;28;20031;-88
2023/10/14 10:09:26;;;;;;;3.20;1.98;;;;;;;;;;6210901;28;20459;-89
2023/10/14 10:12:27;;;;;;;2.75;2.15;;;;;;;;;;6201859;28;20018;-89
2023/10/14 10:15:28;;;;;;;2.72;1.88;;;;;;;;;;6185460;28;20065;-89
2023/10/14 10:18:56;;;;;;;2.10;1.20;;;;;;;;;;6207389;28;20029;-89
2023/10/14 10:22:12;;;;;;;1.88;1.35;;;;;;;;;;6207092;28;20038;-88
2023/10/14 10:25:15;;;;;;;1.83;1.40;;;;;;;;;;6220319;28;20034;-88
2023/10/14 10:28:27;;;;;;;1.80;1.50;;;;;;;;;;6215269;28;20026;-89
2023/10/14 10:31:28;;;;;;;2.58;1.38;;;;;;;;;;6208143;28;20030;-88
2023/10/14 10:34:30;;;;;;;1.33;1.20;;;;;;;;;;6213626;28;20033;-90
2023/10/14 10:37:33;;;;;;;2.58;1.48;;;;;;;;;;6212919;28;20034;-89
2023/10/14 10:40:34;;;;;;;1.40;1.30;;;;;;;;;;6175464;28;20164;-89
2023/10/14 10:43:37;;;;;;;1.90;1.27;;;;;;;;;;6172419;28;20041;-89
2023/10/14 10:46:41;;;;;;;1.75;1.52;;;;;;;;;;6221044;28;20667;-89
2023/10/14 10:49:56;;;;;;;1.92;1.52;;;;;;;;;;6198682;28;20030;-89
2023/10/14 10:53:06;;;;;;;1.88;1.25;;;;;;;;;;6180684;28;20118;-88
2023/10/14 10:56:07;;;;;;;1.40;1.23;;;;;;;;;;6206194;28;20094;-89
2023/10/14 10:59:07;;;;;;;1.77;1.10;;;;;;;;;;6204527;28;20035;-88
2023/10/14 11:02:08;;;;;;;1.70;1.40;;;;;;;;;;6215384;28;20026;-88
2023/10/14 11:05:08;;;;;;;2.40;1.30;;;;;;;;;;6203705;28;20455;-89
2023/10/14 11:08:09;;;;;;;2.00;1.35;;;;;;;;;;6218936;28;20041;-89
2023/10/14 11:11:10;;;;;;;1.85;1.40;;;;;;;;;;6187036;28;20125;-88
2023/10/14 11:14:20;;;;;;;3.55;1.40;;;;;;;;;;6198224;28;20498;-88
2023/10/14 11:17:22;;;;;;;1.88;1.30;;;;;;;;;;6219496;28;20579;-88
2023/10/14 11:20:23;;;;;;;1.83;1.20;;;;;;;;;;6219740;28;20058;-89
2023/10/14 11:23:23;;;;;;;2.53;1.20;;;;;;;;;;6220262;28;20527;-88
2023/10/14 11:26:23;;;;;;;2.83;1.40;;;;;;;;;;6207312;28;20391;-88
2023/10/14 11:29:24;;;;;;;2.00;1.20;;;;;;;;;;6183169;28;20257;-88
2023/10/14 11:32:26;;;;;;;1.70;1.30;;;;;;;;;;6184366;28;20371;-88
2023/10/14 11:35:29;;;;;;;1.83;1.20;;;;;;;;;;6212761;28;20026;-88
2023/10/14 11:38:30;;;;;;;1.30;1.20;;;;;;;;;;6197267;28;20165;-87
2023/10/14 11:41:30;;;;;;;1.60;1.20;;;;;;;;;;6172465;28;20027;-87
2023/10/14 11:44:30;;;;;;;1.80;1.35;;;;;;;;;;6214488;28;20032;-88
2023/10/14 11:47:35;;;;;;;2.35;1.48;;;;;;;;;;6201093;28;20125;-88
2023/10/14 11:50:37;;;;;;;1.75;1.48;;;;;;;;;;6204849;28;20465;-88
2023/10/14 11:53:43;;;;;;;1.77;1.20;;;;;;;;;;6210598;28;20021;-88
2023/10/14 11:56:43;;;;;;;1.52;1.23;;;;;;;;;;6219170;28;20130;-88
2023/10/14 11:59:44;;;;;;;1.60;1.10;;;;;;;;;;6215542;28;20023;-88
2023/10/14 12:02:45;;;;;;;1.17;1.08;;;;;;;;;;6210950;28;20535;-88
2023/10/14 12:05:45;;;;;;;1.30;0.93;;;;;;;;;;6199197;28;20450;-87
2023/10/14 12:08:46;;;;;;;1.30;1.20;;;;;;;;;;6198784;28;20039;-87
2023/10/14 12:11:47;;;;;;;1.60;1.10;;;;;;;;;;6211596;28;20037;-88
2023/10/14 12:14:47;;;;;;;1.50;1.02;;;;;;;;;;6155781;28;20114;-88
2023/10/14 12:17:48;;;;;;;1.38;1.00;;;;;;;;;;6173566;28;20066;-90
2023/10/14 12:20:48;;;;;;;1.40;1.13;;;;;;;;;;6192552;28;20041;-89
2023/10/14 12:23:49;;;;;;;2.30;1.30;;;;;;;;;;6205264;28;20038;-88
2023/10/14 12:26:52;;;;;;;2.78;1.15;;;;;;;;;;6196837;28;20038;-88
2023/10/14 12:29:53;;;;;;;1.75;1.02;;;;;;;;;;6198698;28;20057;-88
2023/10/14 12:32:53;;;;;;;1.77;1.10;;;;;;;;;;6217358;28;20390;-88
2023/10/14 12:35:53;;;;;;;1.13;0.80;;;;;;;;;;6172047;28;20030;-90
2023/10/14 12:38:54;;;;;;;2.60;1.10;;;;;;;;;;6146718;28;20051;-88
2023/10/14 12:42:03;;;;;;;1.60;1.23;;;;;;;;;;6193295;28;20106;-88
2023/10/14 12:45:11;;;;;;;2.05;1.30;;;;;;;;;;6147338;28;20062;-88
2023/10/14 12:48:11;;;;;;;2.58;1.33;;;;;;;;;;6148096;28;20027;-88
2023/10/14 12:51:20;;;;;;;1.35;1.10;;;;;;;;;;6182341;28;20053;-88
2023/10/14 12:54:20;;;;;;;1.48;1.27;;;;;;;;;;6182661;28;20023;-88
2023/10/14 12:57:21;;;;;;;2.80;1.20;;;;;;;;;;6189651;28;20490;-87
2023/10/14 13:00:30;;;;;;;1.63;1.25;;;;;;;;;;6192429;28;20029;-88
2023/10/14 13:03:32;;;;;;;2.17;1.38;;;;;;;;;;6194627;28;20030;-89
2023/10/14 13:06:33;;;;;;;2.00;1.23;;;;;;;;;;6188364;28;20116;-88
2023/10/14 13:09:35;;;;;;;2.13;1.17;;;;;;;;;;6150944;28;20076;-88
2023/10/14 13:12:37;;;;;;;1.30;1.05;;;;;;;;;;6181129;28;20502;-88
2023/10/14 13:15:37;;;;;;;1.23;1.10;;;;;;;;;;6152833;28;20084;-89
2023/10/14 13:18:38;;;;;;;2.92;1.25;;;;;;;;;;6181125;28;20034;-88
2023/10/14 13:21:41;;;;;;;2.40;1.10;;;;;;;;;;6165646;28;20585;-88
2023/10/14 13:24:49;;;;;;;1.65;1.08;;;;;;;;;;6166461;28;20023;-88
2023/10/14 13:27:51;;;;;;;3.05;1.10;;;;;;;;;;6165779;28;20103;-88
2023/10/14 13:30:54;;;;;;;1.95;1.35;;;;;;;;;;6172887;28;20034;-88
2023/10/14 13:33:55;;;;;;;1.42;1.15;;;;;;;;;;6173305;28;20125;-89
2023/10/14 13:36:57;;;;;;;2.08;1.40;;;;;;;;;;6177434;28;20375;-88
2023/10/14 13:39:57;;;;;;;3.08;2.30;;;;;;;;;;6196733;28;20045;-88
2023/10/14 13:42:57;;;;;;;2.57;1.90;;;;;;;;;;6215925;28;20085;-88
2023/10/14 13:45:57;;;;;;;2.07;1.60;;;;;;;;;;6194093;28;20467;-89
2023/10/14 13:48:58;;;;;;;1.40;1.23;;;;;;;;;;6196969;28;20463;-88
2023/10/14 13:51:58;;;;;;;1.80;1.40;;;;;;;;;;6222999;28;20071;-87
2023/10/14 13:54:59;;;;;;;1.88;1.35;;;;;;;;;;6221195;28;20026;-88
2023/10/14 13:57:59;;;;;;;1.53;1.27;;;;;;;;;;6223834;28;20033;-89
2023/10/14 14:01:01;;;;;;;4.70;1.20;;;;;;;;;;6218270;28;20038;-89
2023/10/14 14:04:01;;;;;;;1.95;1.08;;;;;;;;;;6215573;28;20494;-89
2023/10/14 14:07:01;;;;;;;2.27;1.10;;;;;;;;;;6216857;28;20114;-89
2023/10/14 14:10:05;;;;;;;1.77;1.03;;;;;;;;;;6195151;28;20019;-89
2023/10/14 14:13:05;;;;;;;1.83;1.17;;;;;;;;;;6182286;28;20836;-89
2023/10/14 14:16:05;;;;;;;2.00;1.30;;;;;;;;;;6198875;28;20058;-88
2023/10/14 14:19:05;;;;;;;1.67;1.10;;;;;;;;;;6181779;28;20471;-89
2023/10/14 14:22:06;;;;;;;2.60;1.10;;;;;;;;;;6203320;28;20018;-88
2023/10/14 14:25:06;;;;;;;2.05;1.10;;;;;;;;;;6222403;28;20029;-89
2023/10/14 14:28:09;;;;;;;1.35;1.08;;;;;;;;;;6216447;28;20072;-89
2023/10/14 14:31:12;;;;;;;3.55;1.10;;;;;;;;;;6219655;28;20022;-89
2023/10/14 14:34:14;;;;;;;1.95;1.10;;;;;;;;;;6183863;28;20056;-89
2023/10/14 14:37:14;;;;;;;1.30;1.10;;;;;;;;;;6179860;28;20494;-81
2023/10/14 14:40:23;;;;;;;1.50;1.02;;;;;;;;;;6180455;28;20042;-80
2023/10/14 14:43:23;;;;;;;1.20;1.10;;;;;;;;;;6200792;28;20409;-82
2023/10/14 14:46:23;;;;;;;1.77;1.20;;;;;;;;;;6222053;28;20067;-82
2023/10/14 14:49:24;;;;;;;1.90;1.15;;;;;;;;;;6217664;28;20084;-82
2023/10/14 14:52:26;;;;;;;2.50;2.10;;;;;;;;;;6215313;28;20038;-81
2023/10/14 14:55:26;;;;;;;3.53;2.35;;;;;;;;;;6177186;28;20050;-81
2023/10/14 14:58:28;;;;;;;2.15;1.88;;;;;;;;;;6222019;28;20034;-82
2023/10/14 15:01:31;;;;;;;3.08;2.40;;;;;;;;;;6216945;28;20022;-81
2023/10/14 15:04:31;;;;;;;2.70;1.95;;;;;;;;;;6220318;28;20033;-82
2023/10/14 15:07:32;;;;;;;3.30;2.27;;;;;;;;;;6194051;28;20062;-81
2023/10/14 15:10:35;;;;;;;1.95;1.60;;;;;;;;;;6196797;28;20280;-81
2023/10/14 15:13:36;;;;;;;2.60;1.60;;;;;;;;;;6210780;28;20026;-81
2023/10/14 15:16:37;;;;;;;2.63;1.40;;;;;;;;;;6191404;28;20025;-81
2023/10/14 15:19:37;;;;;;;1.73;1.30;;;;;;;;;;6187606;28;20484;-81
2023/10/14 15:22:38;;;;;;;1.42;1.00;;;;;;;;;;6209458;28;20026;-81
2023/10/14 15:25:38;;;;;;;2.70;1.27;;;;;;;;;;6173099;28;20053;-81
2023/10/14 15:28:39;;;;;;;2.05;1.00;;;;;;;;;;6184467;28;20035;-83
2023/10/14 15:31:41;;;;;;;1.60;1.27;;;;;;;;;;6219878;28;20118;-81
2023/10/14 15:34:41;;;;;;;1.65;1.15;;;;;;;;;;6219479;28;20017;-81
2023/10/14 15:37:47;;;;;;;2.03;1.10;;;;;;;;;;6194471;28;20026;-81
2023/10/14 15:40:51;;;;;;;2.28;0.93;;;;;;;;;;6205291;28;20029;-81
2023/10/14 15:43:52;;;;;;;2.47;1.00;;;;;;;;;;6212947;28;20083;-82
2023/10/14 15:46:53;;;;;;;1.25;0.95;;;;;;;;;;6199682;28;20018;-89
2023/10/14 15:49:54;;;;;;;2.03;1.80;;;;;;;;;;6188292;28;20541;-88
2023/10/14 15:52:55;;;;;;;2.10;1.90;;;;;;;;;;6213861;28;20111;-88
2023/10/14 15:55:56;;;;;;;2.25;1.45;;;;;;;;;;6212661;28;20034;-86
2023/10/14 15:58:56;;;;;;;2.40;1.33;;;;;;;;;;6220402;28;20029;-89
2023/10/14 16:01:57;;;;;;;1.40;1.10;;;;;;;;;;6211249;28;20070;-89
2023/10/14 16:04:57;;;;;;;1.92;1.10;;;;;;;;;;6189285;28;20031;-88
2023/10/14 16:07:59;;;;;;;2.37;1.33;;;;;;;;;;6197845;28;20046;-88
2023/10/14 16:11:00;;;;;;;1.50;1.08;;;;;;;;;;6190735;28;20280;-89
2023/10/14 16:14:02;;;;;;;1.83;0.90;;;;;;;;;;6197364;28;20018;-88
2023/10/14 16:17:05;;;;;;;1.40;0.90;;;;;;;;;;6221365;28;20074;-88
2023/10/14 16:20:06;;;;;;;2.60;1.08;;;;;;;;;;6205721;28;20030;-88
2023/10/14 16:23:06;;;;;;;2.00;1.15;;;;;;;;;;6215999;28;20128;-88
2023/10/14 16:26:08;;;;;;;1.25;1.10;;;;;;;;;;6222486;28;20040;-89
2023/10/14 16:29:08;;;;;;;1.83;0.95;;;;;;;;;;6216517;28;20026;-87
2023/10/14 16:32:09;;;;;;;2.85;1.05;;;;;;;;;;6219546;28;20034;-88
2023/10/14 16:35:09;;;;;;;1.43;0.90;;;;;;;;;;6210455;28;20414;-89
2023/10/14 16:38:10;;;;;;;3.80;1.20;;;;;;;;;;6196011;28;20687;-88
2023/10/14 16:41:10;;;;;;;1.48;1.05;;;;;;;;;;6177964;28;20023;-88
2023/10/14 16:44:11;;;;;;;2.13;1.20;;;;;;;;;;6206848;28;20162;-88
2023/10/14 16:47:11;;;;;;;2.65;0.90;;;;;;;;;;6218052;28;20036;-88
2023/10/14 16:50:15;;;;;;;2.03;1.30;;;;;;;;;;6216027;28;20035;-87
2023/10/14 16:53:15;;;;;;;1.23;1.05;;;;;;;;;;6186931;28;20124;-88
2023/10/14 16:56:16;;;;;;;4.00;1.30;;;;;;;;;;6218615;28;20030;-81
2023/10/14 16:59:16;;;;;;;1.77;1.00;;;;;;;;;;6189968;28;20038;-81
2023/10/14 17:02:18;;;;;;;2.23;1.23;;;;;;;;;;6191276;28;20837;-83
2023/10/14 17:05:21;;;;;;;1.10;0.98;;;;;;;;;;6179225;28;20333;-82
2023/10/14 17:08:23;;;;;;;1.40;1.13;;;;;;;;;;6177769;28;20070;-83
2023/10/14 17:11:23;;;;;;;1.27;0.90;;;;;;;;;;6180329;28;20059;-83
2023/10/14 17:14:28;;;;;;;0.93;0.87;;;;;;;;;;6188369;28;20466;-83
2023/10/14 17:17:29;;;;;;;1.48;1.27;;;;;;;;;;6179696;28;20026;-84
2023/10/14 17:20:30;;;;;;;3.70;1.90;;;;;;;;;;6171514;28;20033;-82
2023/10/14 17:23:38;;;;;;;2.55;1.80;;;;;;;;;;6226529;28;20344;-82
2023/10/14 17:26:38;;;;;;;4.20;1.48;;;;;;;;;;6204584;28;20026;-83
2023/10/14 17:29:38;;;;;;;1.53;1.10;;;;;;;;;;6197892;28;20071;-84
2023/10/14 17:32:39;;;;;;;2.28;1.15;;;;;;;;;;6195893;28;20281;-83
2023/10/14 17:35:41;;;;;;;2.55;1.95;;;;;;;;;;6198910;28;20483;-83
2023/10/14 17:38:42;;;;;;;1.90;1.70;;;;;;;;;;6194885;28;20046;-84
2023/10/14 17:41:43;;;;;;;1.85;1.40;;;;;;;;;;6158016;28;20050;-83
2023/10/14 17:44:45;;;;;;;1.63;1.30;;;;;;;;;;6173860;28;20506;-83
2023/10/14 17:47:45;;;;;;;1.77;1.20;;;;;;;;;;6188252;28;20110;-84
2023/10/14 17:50:47;;;;;;;1.33;0.93;;;;;;;;;;6206671;28;20472;-83
2023/10/14 17:53:48;;;;;;;1.40;1.08;;;;;;;;;;6177030;28;20119;-84
2023/10/14 17:56:49;;;;;;;1.00;0.80;;;;;;;;;;6177693;28;20050;-83
2023/10/14 17:59:49;;;;;;;3.00;1.03;;;;;;;;;;6182592;28;20035;-84
2023/10/14 18:02:49;;;;;;;1.20;1.10;;;;;;;;;;6192113;28;20361;-83
2023/10/14 18:05:50;;;;;;;1.20;0.83;;;;;;;;;;6175952;28;20413;-83
2023/10/14 18:08:52;;;;;;;1.90;0.95;;;;;;;;;;6174283;28;20321;-84
2023/10/14 18:11:52;;;;;;;1.50;1.02;;;;;;;;;;6173689;28;20034;-83
2023/10/14 18:14:54;;;;;;;1.20;0.97;;;;;;;;;;6243372;28;20022;-83
2023/10/14 18:17:57;;;;;;;1.30;0.90;;;;;;;;;;6188987;28;20750;-83
2023/10/14 18:20:58;;;;;;;1.25;1.00;;;;;;;;;;6185427;28;20372;-84
2023/10/14 18:23:58;;;;;;;1.63;1.00;;;;;;;;;;6196794;28;20492;-83
2023/10/14 18:27:00;;;;;;;0.93;0.82;;;;;;;;;;6176451;28;20119;-84
2023/10/14 18:30:01;;;;;;;1.25;0.80;;;;;;;;;;6187294;28;20054;-85
2023/10/14 18:33:05;;;;;;;1.35;1.10;;;;;;;;;;6183090;28;20767;-85
2023/10/14 18:36:09;;;;;;;2.55;0.90;;;;;;;;;;6210463;28;20050;-84
2023/10/14 18:39:10;;;;;;;1.27;0.85;;;;;;;;;;6174178;28;20495;-83